createdAt,value
2023-01-27T00:00:08.354Z,987.2
2023-01-27T00:02:10.376Z,987.2
2023-01-27T00:04:11.725Z,987.2
2023-01-27T00:06:13.028Z,987.2
2023-01-27T00:08:14.338Z,987.1
2023-01-27T00:10:15.539Z,987.2
2023-01-27T00:12:16.880Z,987.2
2023-01-27T00:14:17.925Z,987.1
2023-01-27T00:16:19.555Z,987.2
2023-01-27T00:18:21.107Z,987.2
2023-01-27T00:20:22.858Z,987.2
2023-01-27T00:22:24.388Z,987.1
2023-01-27T00:24:25.864Z,987.2
2023-01-27T00:26:27.503Z,987.1
2023-01-27T00:28:28.762Z,987.1
2023-01-27T00:30:30.819Z,987.1
2023-01-27T00:32:32.003Z,987.1
2023-01-27T00:34:33.913Z,987.1
2023-01-27T00:36:35.569Z,987.1
2023-01-27T00:38:37.086Z,987.1
2023-01-27T00:40:38.791Z,987
2023-01-27T00:44:41.598Z,987.1
2023-01-27T00:46:43.301Z,987
2023-01-27T00:48:44.430Z,987.1
2023-01-27T00:50:46.056Z,987
2023-01-27T00:52:47.589Z,987
2023-01-27T00:54:49.063Z,987.1
2023-01-27T00:56:50.154Z,987
2023-01-27T00:58:52.107Z,987
2023-01-27T01:00:53.193Z,987
2023-01-27T01:02:55.138Z,987
2023-01-27T01:04:56.859Z,987
2023-01-27T01:06:58.088Z,987
2023-01-27T01:08:59.441Z,987
2023-01-27T01:11:01.487Z,987.1
2023-01-27T01:13:02.722Z,987.1
2023-01-27T01:15:04.318Z,987.2
2023-01-27T01:17:06.044Z,987.2
2023-01-27T01:19:07.385Z,987.1
2023-01-27T01:21:08.527Z,987.2
2023-01-27T01:23:09.793Z,987.1
2023-01-27T01:25:10.973Z,987.1
2023-01-27T01:27:13.020Z,987.2
2023-01-27T01:29:14.276Z,987.2
2023-01-27T01:31:15.571Z,987.1
2023-01-27T01:33:17.424Z,987.1
2023-01-27T01:37:20.471Z,987.1
2023-01-27T01:39:21.624Z,987.2
2023-01-27T01:41:23.421Z,987.2
2023-01-27T01:43:25.389Z,987.2
2023-01-27T01:45:26.690Z,987.2
2023-01-27T01:47:28.759Z,987.1
2023-01-27T01:49:30.146Z,987.2
2023-01-27T01:51:31.758Z,987.1
2023-01-27T01:53:33.416Z,987.1
2023-01-27T01:55:35.219Z,987.1
2023-01-27T01:57:37.217Z,987
2023-01-27T01:59:38.562Z,987
2023-01-27T02:01:40.567Z,987.2
2023-01-27T02:03:42.525Z,987
2023-01-27T02:05:44.450Z,987
2023-01-27T02:09:47.445Z,986.9
2023-01-27T02:11:49.475Z,987
2023-01-27T02:13:51.313Z,986.9
2023-01-27T02:15:53.127Z,987
2023-01-27T02:19:56.510Z,987
2023-01-27T02:21:58.632Z,987
2023-01-27T02:24:00.428Z,987
2023-01-27T02:26:01.653Z,987
2023-01-27T02:28:03.344Z,987
2023-01-27T02:30:05.026Z,986.9
2023-01-27T02:32:06.608Z,986.9
2023-01-27T02:34:08.102Z,986.9
2023-01-27T02:36:09.196Z,987.1
2023-01-27T02:38:10.656Z,987.1
2023-01-27T02:40:11.862Z,987.1
2023-01-27T02:42:13.375Z,987
2023-01-27T02:44:15.152Z,987
2023-01-27T02:46:16.860Z,987
2023-01-27T02:48:18.521Z,987
2023-01-27T02:52:22.212Z,987.1
2023-01-27T02:54:23.299Z,986.9
2023-01-27T02:56:24.928Z,987
2023-01-27T02:58:26.962Z,986.9
2023-01-27T03:02:30.242Z,987
2023-01-27T03:04:31.800Z,987
2023-01-27T03:06:33.170Z,987
2023-01-27T03:08:35.059Z,987
2023-01-27T03:10:36.864Z,986.9
2023-01-27T03:12:38.017Z,987
2023-01-27T03:14:39.107Z,987
2023-01-27T03:16:40.328Z,987
2023-01-27T03:18:41.676Z,987
2023-01-27T03:20:43.044Z,987.1
2023-01-27T03:22:44.352Z,987.1
2023-01-27T03:24:45.430Z,987
2023-01-27T03:26:46.818Z,987.1
2023-01-27T03:28:48.131Z,987
2023-01-27T03:30:49.349Z,987.1
2023-01-27T03:32:50.500Z,987.1
2023-01-27T03:34:51.972Z,987.2
2023-01-27T03:36:53.210Z,987.1
2023-01-27T03:38:54.822Z,987.2
2023-01-27T03:40:56.065Z,987.2
2023-01-27T03:42:57.585Z,987.2
2023-01-27T03:44:59.642Z,987.2
2023-01-27T03:47:00.877Z,987.2
2023-01-27T03:51:03.483Z,987.2
2023-01-27T03:53:04.963Z,987.2
2023-01-27T03:55:06.575Z,987.2
2023-01-27T03:57:08.224Z,987.2
2023-01-27T03:59:10.154Z,987.2
2023-01-27T04:01:11.772Z,987.3
2023-01-27T04:03:13.094Z,987.3
2023-01-27T04:05:15.023Z,987.3
2023-01-27T04:07:15.950Z,987.3
2023-01-27T04:09:17.211Z,987.3
2023-01-27T04:11:18.957Z,987.4
2023-01-27T04:13:20.263Z,987.3
2023-01-27T04:15:21.579Z,987.3
2023-01-27T04:17:22.922Z,987.3
2023-01-27T04:19:24.480Z,987.3
2023-01-27T04:21:26.268Z,987.3
2023-01-27T04:23:27.705Z,987.3
2023-01-27T04:25:28.848Z,987.3
2023-01-27T04:27:30.849Z,987.5
2023-01-27T04:29:32.267Z,987.3
2023-01-27T04:31:33.959Z,987.2
2023-01-27T04:33:35.064Z,987.3
2023-01-27T04:35:38.860Z,987.3
2023-01-27T04:37:38.593Z,987.3
2023-01-27T04:39:40.007Z,987.2
2023-01-27T04:41:41.811Z,987.3
2023-01-27T04:43:43.250Z,987.3
2023-01-27T04:45:44.464Z,987.2
2023-01-27T04:47:46.223Z,987.2
2023-01-27T04:49:47.378Z,987.3
2023-01-27T04:51:48.690Z,987.3
2023-01-27T04:53:50.408Z,987.4
2023-01-27T04:55:52.117Z,987.4
2023-01-27T04:57:53.323Z,987.4
2023-01-27T05:00:38.507Z,987.5
2023-01-27T05:02:40.253Z,987.4
2023-01-27T05:04:41.787Z,987.4
2023-01-27T05:06:43.184Z,987.4
2023-01-27T05:08:44.624Z,987.5
2023-01-27T05:10:46.683Z,987.4
2023-01-27T05:12:48.633Z,987.5
2023-01-27T05:14:50.316Z,987.4
2023-01-27T05:16:51.396Z,987.4
2023-01-27T05:18:53.067Z,987.4
2023-01-27T05:20:55.077Z,987.5
2023-01-27T05:22:56.872Z,987.4
2023-01-27T05:24:58.587Z,987.5
2023-01-27T05:27:00.332Z,987.5
2023-01-27T05:29:01.749Z,987.5
2023-01-27T05:31:03.476Z,987.5
2023-01-27T05:33:04.489Z,987.6
2023-01-27T05:35:06.064Z,987.5
2023-01-27T05:37:07.820Z,987.4
2023-01-27T05:39:09.238Z,987.4
2023-01-27T05:41:10.396Z,987.5
2023-01-27T05:43:11.902Z,987.6
2023-01-27T05:45:13.665Z,987.5
2023-01-27T05:47:15.157Z,987.6
2023-01-27T05:49:17.010Z,987.7
2023-01-27T05:51:18.996Z,987.6
2023-01-27T05:53:20.392Z,987.6
2023-01-27T05:55:22.220Z,987.5
2023-01-27T05:59:25.775Z,987.6
2023-01-27T06:01:27.245Z,987.6
2023-01-27T06:03:28.831Z,987.6
2023-01-27T06:05:29.978Z,987.6
2023-01-27T06:07:31.065Z,987.7
2023-01-27T06:09:32.276Z,987.6
2023-01-27T06:11:34.190Z,987.7
2023-01-27T06:13:35.868Z,987.7
2023-01-27T06:15:37.192Z,987.8
2023-01-27T06:17:38.582Z,987.8
2023-01-27T06:19:39.703Z,987.8
2023-01-27T06:21:41.272Z,987.8
2023-01-27T06:23:42.519Z,987.8
2023-01-27T06:25:43.777Z,987.8
2023-01-27T06:27:45.653Z,987.8
2023-01-27T06:29:47.626Z,987.8
2023-01-27T06:31:49.051Z,987.8
2023-01-27T06:33:50.104Z,987.8
2023-01-27T06:35:52.133Z,987.8
2023-01-27T06:37:53.373Z,987.8
2023-01-27T06:39:54.945Z,987.8
2023-01-27T06:41:56.060Z,987.9
2023-01-27T06:43:57.301Z,987.8
2023-01-27T06:45:58.477Z,987.9
2023-01-27T06:47:59.910Z,987.9
2023-01-27T06:50:01.120Z,988
2023-01-27T06:52:02.940Z,988
2023-01-27T06:54:04.089Z,988
2023-01-27T06:56:05.816Z,988.1
2023-01-27T06:58:06.930Z,988.1
2023-01-27T07:00:08.521Z,988.2
2023-01-27T07:02:10.492Z,988.2
2023-01-27T07:04:11.612Z,988.2
2023-01-27T07:06:12.936Z,988.3
2023-01-27T07:08:14.920Z,988.2
2023-01-27T07:10:16.963Z,988.2
2023-01-27T07:12:18.467Z,988.2
2023-01-27T07:14:20.292Z,988.4
2023-01-27T07:18:23.383Z,988.4
2023-01-27T07:20:24.806Z,988.5
2023-01-27T07:22:26.711Z,988.4
2023-01-27T07:24:28.175Z,988.4
2023-01-27T07:26:29.879Z,988.6
2023-01-27T07:28:31.836Z,988.5
2023-01-27T07:30:33.958Z,988.5
2023-01-27T07:32:35.823Z,988.5
2023-01-27T07:34:37.311Z,988.5
2023-01-27T07:36:38.931Z,988.6
2023-01-27T07:38:40.762Z,988.5
2023-01-27T07:40:42.403Z,988.6
2023-01-27T07:42:43.966Z,988.5
2023-01-27T07:44:45.700Z,988.5
2023-01-27T07:46:47.131Z,988.5
2023-01-27T07:50:50.720Z,988.6
2023-01-27T07:52:52.512Z,988.6
2023-01-27T07:54:53.661Z,988.7
2023-01-27T07:56:55.604Z,988.6
2023-01-27T08:00:58.833Z,988.8
2023-01-27T08:03:00.307Z,988.7
2023-01-27T08:05:02.211Z,988.7
2023-01-27T08:07:03.653Z,988.8
2023-01-27T08:09:04.890Z,988.8
2023-01-27T08:11:05.955Z,988.7
2023-01-27T08:13:07.508Z,988.7
2023-01-27T08:15:09.273Z,988.7
2023-01-27T08:17:10.700Z,988.8
2023-01-27T08:19:11.861Z,988.7
2023-01-27T08:21:13.289Z,988.7
2023-01-27T08:23:15.192Z,988.8
2023-01-27T08:25:16.772Z,988.8
2023-01-27T08:27:17.868Z,988.7
2023-01-27T08:29:19.404Z,988.8
2023-01-27T08:31:20.647Z,988.7
2023-01-27T08:33:21.620Z,988.7
2023-01-27T08:35:23.016Z,988.9
2023-01-27T08:37:24.304Z,988.9
2023-01-27T08:39:25.485Z,988.9
2023-01-27T08:41:26.640Z,989
2023-01-27T08:43:28.078Z,988.9
2023-01-27T08:45:29.792Z,988.8
2023-01-27T08:47:30.823Z,988.9
2023-01-27T08:49:32.344Z,988.9
2023-01-27T08:51:33.473Z,988.8
2023-01-27T08:53:35.452Z,988.8
2023-01-27T08:55:37.039Z,988.9
2023-01-27T08:57:38.932Z,988.8
2023-01-27T08:59:40.650Z,988.8
2023-01-27T09:01:42.478Z,988.7
2023-01-27T09:03:43.626Z,988.8
2023-01-27T09:05:44.980Z,988.8
2023-01-27T09:07:46.795Z,989
2023-01-27T09:09:48.584Z,988.9
2023-01-27T09:11:50.259Z,988.9
2023-01-27T09:13:51.695Z,988.9
2023-01-27T09:15:53.088Z,989
2023-01-27T09:17:54.379Z,989
2023-01-27T09:19:55.501Z,989
2023-01-27T09:21:56.707Z,988.9
2023-01-27T09:23:58.440Z,989
2023-01-27T09:26:00.412Z,989.1
2023-01-27T09:28:01.458Z,989.1
2023-01-27T09:30:02.759Z,989.1
2023-01-27T09:32:04.455Z,989
2023-01-27T09:34:05.885Z,989
2023-01-27T09:36:07.248Z,989.1
2023-01-27T09:38:08.752Z,989
2023-01-27T09:40:10.159Z,989.1
2023-01-27T09:42:13.175Z,989.1
2023-01-27T09:44:13.191Z,989.2
2023-01-27T09:48:16.210Z,989.1
2023-01-27T09:50:17.837Z,989.2
2023-01-27T09:52:19.315Z,989.1
2023-01-27T09:54:21.362Z,989.2
2023-01-27T09:56:22.921Z,989
2023-01-27T09:58:24.806Z,989.1
2023-01-27T10:00:26.408Z,989.1
2023-01-27T10:02:27.618Z,989.2
2023-01-27T10:04:29.235Z,989.2
2023-01-27T10:06:32.654Z,989.1
2023-01-27T10:08:32.302Z,989.3
2023-01-27T10:10:34.180Z,989.1
2023-01-27T10:12:35.829Z,989.2
2023-01-27T10:14:37.270Z,989.3
2023-01-27T10:16:38.772Z,989.2
2023-01-27T10:18:40.352Z,989.3
2023-01-27T10:20:41.560Z,989.2
2023-01-27T10:22:43.008Z,989.2
2023-01-27T10:24:44.286Z,989.1
2023-01-27T10:26:45.690Z,989
2023-01-27T10:28:47.009Z,989
2023-01-27T10:30:48.732Z,989
2023-01-27T10:32:50.466Z,989
2023-01-27T10:34:52.509Z,989.1
2023-01-27T10:36:53.983Z,989.1
2023-01-27T10:38:55.233Z,989
2023-01-27T10:40:56.816Z,989
2023-01-27T10:42:57.942Z,989
2023-01-27T10:44:59.423Z,989
2023-01-27T10:47:00.949Z,989
2023-01-27T10:49:02.696Z,989
2023-01-27T10:51:04.013Z,989
2023-01-27T10:53:05.181Z,988.9
2023-01-27T10:57:08.244Z,988.9
2023-01-27T10:59:09.944Z,988.9
2023-01-27T11:01:20.673Z,989
2023-01-27T11:03:12.177Z,989
2023-01-27T11:07:15.011Z,988.9
2023-01-27T11:09:16.365Z,988.9
2023-01-27T11:11:18.330Z,988.8
2023-01-27T11:13:19.288Z,989
2023-01-27T11:15:20.618Z,989
2023-01-27T11:17:22.413Z,988.9
2023-01-27T11:19:23.482Z,988.9
2023-01-27T11:21:24.565Z,988.9
2023-01-27T11:23:26.557Z,989
2023-01-27T11:25:28.529Z,988.9
2023-01-27T11:27:30.131Z,989
2023-01-27T11:29:31.931Z,988.9
2023-01-27T11:31:35.203Z,988.9
2023-01-27T11:33:35.226Z,988.9
2023-01-27T11:35:36.838Z,988.9
2023-01-27T11:39:39.532Z,988.9
2023-01-27T11:41:41.317Z,988.9
2023-01-27T11:43:43.121Z,988.8
2023-01-27T11:44:27.032Z,988.8
2023-01-27T11:46:28.384Z,988.8
2023-01-27T11:50:31.490Z,988.8
2023-01-27T11:52:33.470Z,988.8
2023-01-27T11:54:34.886Z,988.6
2023-01-27T11:56:36.150Z,988.7
2023-01-27T11:58:37.475Z,988.7
2023-01-27T12:00:39.056Z,988.6
2023-01-27T12:02:40.210Z,988.6
2023-01-27T12:04:41.402Z,988.6
2023-01-27T12:06:43.044Z,988.6
2023-01-27T12:08:44.532Z,988.6
2023-01-27T12:10:46.025Z,988.5
2023-01-27T12:12:47.695Z,988.6
2023-01-27T12:14:48.871Z,988.6
2023-01-27T12:16:50.265Z,988.5
2023-01-27T12:18:52.171Z,988.6
2023-01-27T12:20:54.069Z,988.4
2023-01-27T12:22:55.546Z,988.5
2023-01-27T12:24:56.814Z,988.6
2023-01-27T12:26:58.222Z,988.6
2023-01-27T12:29:00.101Z,988.6
2023-01-27T12:33:03.195Z,988.6
2023-01-27T12:35:05.037Z,988.6
2023-01-27T12:37:06.515Z,988.5
2023-01-27T12:39:07.813Z,988.5
2023-01-27T12:41:09.281Z,988.5
2023-01-27T12:43:10.548Z,988.5
2023-01-27T12:45:12.081Z,988.5
2023-01-27T12:47:13.935Z,988.6
2023-01-27T12:49:15.037Z,988.6
2023-01-27T12:51:16.820Z,988.5
2023-01-27T12:53:18.313Z,988.6
2023-01-27T12:55:20.136Z,988.5
2023-01-27T12:57:21.614Z,988.6
2023-01-27T12:59:22.826Z,988.6
2023-01-27T13:01:24.022Z,988.5
2023-01-27T13:03:25.978Z,988.6
2023-01-27T13:05:27.346Z,988.5
2023-01-27T13:07:28.872Z,988.5
2023-01-27T13:09:30.584Z,988.5
2023-01-27T13:11:32.363Z,988.5
2023-01-27T13:13:34.148Z,988.5
2023-01-27T13:15:35.927Z,988.4
2023-01-27T13:17:37.596Z,988.5
2023-01-27T13:19:38.876Z,988.5
2023-01-27T13:21:39.880Z,988.5
2023-01-27T13:23:41.777Z,988.5
2023-01-27T13:25:42.876Z,988.3
2023-01-27T13:27:44.336Z,988.5
2023-01-27T13:31:47.715Z,988.5
2023-01-27T13:33:48.739Z,988.5
2023-01-27T13:35:50.513Z,988.5
2023-01-27T13:37:52.336Z,988.5
2023-01-27T13:39:54.925Z,988.5
2023-01-27T13:41:55.916Z,988.5
2023-01-27T13:43:57.355Z,988.5
2023-01-27T13:45:58.480Z,988.6
2023-01-27T13:48:00.030Z,988.6
2023-01-27T13:50:01.064Z,988.6
2023-01-27T13:52:02.359Z,988.6
2023-01-27T13:54:04.225Z,988.6
2023-01-27T13:56:06.094Z,988.6
2023-01-27T13:58:07.833Z,988.7
2023-01-27T14:00:09.669Z,988.7
2023-01-27T14:02:11.335Z,988.7
2023-01-27T14:04:13.026Z,988.6
2023-01-27T14:06:14.906Z,988.7
2023-01-27T14:08:16.518Z,988.7
2023-01-27T14:10:17.910Z,988.7
2023-01-27T14:12:27.543Z,988.7
2023-01-27T14:14:21.305Z,988.7
2023-01-27T14:16:22.573Z,988.8
2023-01-27T14:18:23.637Z,988.8
2023-01-27T14:20:24.911Z,988.7
2023-01-27T14:22:26.837Z,988.7
2023-01-27T14:24:28.695Z,988.8
2023-01-27T14:26:29.726Z,988.7
2023-01-27T14:28:30.950Z,988.8
2023-01-27T14:30:32.050Z,988.8
2023-01-27T14:32:33.557Z,988.7
2023-01-27T14:34:35.152Z,988.7
2023-01-27T14:36:36.493Z,988.7
2023-01-27T14:38:37.668Z,988.7
2023-01-27T14:40:39.147Z,988.7
2023-01-27T14:42:40.993Z,988.7
2023-01-27T14:44:43.757Z,988.7
2023-01-27T14:46:44.472Z,988.8
2023-01-27T14:48:54.946Z,988.7
2023-01-27T14:50:47.467Z,988.7
2023-01-27T14:52:48.688Z,988.8
2023-01-27T14:54:49.963Z,988.7
2023-01-27T14:56:51.310Z,988.8
2023-01-27T14:58:53.155Z,988.9
2023-01-27T15:00:54.838Z,988.9
2023-01-27T15:02:55.853Z,988.8
2023-01-27T15:04:57.558Z,988.9
2023-01-27T15:06:59.356Z,988.9
2023-01-27T15:09:00.877Z,988.9
2023-01-27T15:11:02.063Z,988.8
2023-01-27T15:13:03.889Z,988.9
2023-01-27T15:15:05.574Z,988.9
2023-01-27T15:17:07.413Z,988.9
2023-01-27T15:19:09.516Z,988.9
2023-01-27T15:21:10.676Z,988.9
2023-01-27T15:23:12.223Z,988.9
2023-01-27T15:25:13.740Z,989
2023-01-27T15:27:15.489Z,989.1
2023-01-27T15:29:17.498Z,989
2023-01-27T15:31:18.887Z,989
2023-01-27T15:33:20.633Z,989.1
2023-01-27T15:35:22.119Z,989
2023-01-27T15:37:23.622Z,989.1
2023-01-27T15:39:32.345Z,989.2
2023-01-27T15:41:26.973Z,989.1
2023-01-27T15:43:28.147Z,989.2
2023-01-27T15:45:29.759Z,989.2
2023-01-27T15:47:31.175Z,989.2
2023-01-27T15:49:32.226Z,989.2
2023-01-27T15:51:33.945Z,989.3
2023-01-27T15:53:35.331Z,989.2
2023-01-27T15:55:37.211Z,989.2
2023-01-27T15:57:38.522Z,989.2
2023-01-27T15:59:42.118Z,989.2
2023-01-27T16:01:41.427Z,989.3
2023-01-27T16:05:45.194Z,989.2
2023-01-27T16:07:46.909Z,989.2
2023-01-27T16:09:48.880Z,989.2
2023-01-27T16:11:50.440Z,989.3
2023-01-27T16:13:51.763Z,989.3
2023-01-27T16:15:53.374Z,989.3
2023-01-27T16:17:54.777Z,989.3
2023-01-27T16:19:56.229Z,989.4
2023-01-27T16:21:58.139Z,989.4
2023-01-27T16:23:59.526Z,989.4
2023-01-27T16:26:01.468Z,989.4
2023-01-27T16:28:02.822Z,989.4
2023-01-27T16:30:04.767Z,989.4
2023-01-27T16:32:06.774Z,989.4
2023-01-27T16:34:08.139Z,989.4
2023-01-27T16:36:09.983Z,989.3
2023-01-27T16:38:11.202Z,989.4
2023-01-27T16:40:12.441Z,989.4
2023-01-27T16:42:14.419Z,989.5
2023-01-27T16:44:16.370Z,989.4
2023-01-27T16:48:19.118Z,989.5
2023-01-27T16:50:20.553Z,989.5
2023-01-27T16:52:29.388Z,989.5
2023-01-27T16:54:23.184Z,989.4
2023-01-27T16:58:29.789Z,989.6
2023-01-27T17:00:27.664Z,989.5
2023-01-27T17:02:29.052Z,989.6
2023-01-27T17:04:30.412Z,989.5
2023-01-27T17:06:32.257Z,989.6
2023-01-27T17:08:33.774Z,989.6
2023-01-27T17:10:35.712Z,989.6
2023-01-27T17:12:36.424Z,989.6
2023-01-27T17:14:38.037Z,989.6
2023-01-27T17:16:39.404Z,989.6
2023-01-27T17:18:51.014Z,989.6
2023-01-27T17:20:41.892Z,989.6
2023-01-27T17:22:43.617Z,989.7
2023-01-27T17:24:44.768Z,989.7
2023-01-27T17:26:46.149Z,989.6
2023-01-27T17:28:48.071Z,989.5
2023-01-27T17:30:49.551Z,989.7
2023-01-27T17:32:51.022Z,989.7
2023-01-27T17:34:52.993Z,989.7
2023-01-27T17:36:54.189Z,989.6
2023-01-27T17:38:55.617Z,989.7
2023-01-27T17:40:57.369Z,989.7
2023-01-27T17:42:58.404Z,989.7
2023-01-27T17:47:01.665Z,989.8
2023-01-27T17:49:03.040Z,989.7
2023-01-27T17:51:04.206Z,989.8
2023-01-27T17:53:05.782Z,989.8
2023-01-27T17:55:07.484Z,989.9
2023-01-27T17:57:08.803Z,989.8
2023-01-27T17:59:10.434Z,989.8
2023-01-27T18:01:12.358Z,989.9
2023-01-27T18:03:14.085Z,989.8
2023-01-27T18:05:15.502Z,989.9
2023-01-27T18:07:16.704Z,989.9
2023-01-27T18:09:17.770Z,989.9
2023-01-27T18:11:18.870Z,989.9
2023-01-27T18:13:20.198Z,990
2023-01-27T18:15:21.826Z,989.8
2023-01-27T18:17:23.334Z,989.9
2023-01-27T18:19:24.442Z,990
2023-01-27T18:21:25.646Z,989.9
2023-01-27T18:23:26.928Z,989.9
2023-01-27T18:25:28.690Z,990
2023-01-27T18:27:30.571Z,990.1
2023-01-27T18:29:31.758Z,990.1
2023-01-27T18:30:15.710Z,990.1
2023-01-27T18:34:18.198Z,990.2
2023-01-27T18:36:19.729Z,990.2
2023-01-27T18:38:21.326Z,990.1
2023-01-27T18:40:22.992Z,990.2
2023-01-27T18:42:24.129Z,990.3
2023-01-27T18:44:26.142Z,990.1
2023-01-27T18:46:27.730Z,990.2
2023-01-27T18:48:29.459Z,990.2
2023-01-27T18:50:30.960Z,990.2
2023-01-27T18:52:32.938Z,990.1
2023-01-27T18:54:34.829Z,990.3
2023-01-27T18:56:36.582Z,990.2
2023-01-27T18:58:37.921Z,990.3
2023-01-27T19:00:39.393Z,990.3
2023-01-27T19:02:40.936Z,990.3
2023-01-27T19:04:42.670Z,990.3
2023-01-27T19:06:44.556Z,990.3
2023-01-27T19:08:46.634Z,990.3
2023-01-27T19:10:48.527Z,990.2
2023-01-27T19:12:49.708Z,990.3
2023-01-27T19:14:51.701Z,990.4
2023-01-27T19:16:52.841Z,990.3
2023-01-27T19:18:54.545Z,990.4
2023-01-27T19:22:57.190Z,990.3
2023-01-27T19:24:58.298Z,990.3
2023-01-27T19:27:00.117Z,990.4
2023-01-27T19:29:02.039Z,990.4
2023-01-27T19:31:03.847Z,990.4
2023-01-27T19:33:05.493Z,990.3
2023-01-27T19:35:06.811Z,990.4
2023-01-27T19:37:08.426Z,990.4
2023-01-27T19:39:10.148Z,990.4
2023-01-27T19:41:12.121Z,990.4
2023-01-27T19:43:13.396Z,990.4
2023-01-27T19:45:15.305Z,990.5
2023-01-27T19:47:16.566Z,990.4
2023-01-27T19:49:17.798Z,990.5
2023-01-27T19:51:19.404Z,990.5
2023-01-27T19:53:21.076Z,990.5
2023-01-27T19:55:22.704Z,990.6
2023-01-27T19:57:24.370Z,990.6
2023-01-27T19:59:25.825Z,990.6
2023-01-27T20:01:27.052Z,990.6
2023-01-27T20:03:28.120Z,990.6
2023-01-27T20:05:29.923Z,990.6
2023-01-27T20:07:31.754Z,990.7
2023-01-27T20:09:33.644Z,990.6
2023-01-27T20:11:34.772Z,990.6
2023-01-27T20:13:36.344Z,990.6
2023-01-27T20:15:37.783Z,990.5
2023-01-27T20:17:38.865Z,990.5
2023-01-27T20:19:40.848Z,990.6
2023-01-27T20:21:42.058Z,990.6
2023-01-27T20:23:43.904Z,990.5
2023-01-27T20:25:45.795Z,990.6
2023-01-27T20:27:47.168Z,990.6
2023-01-27T20:31:50.400Z,990.6
2023-01-27T20:33:51.697Z,990.6
2023-01-27T20:35:53.212Z,990.6
2023-01-27T20:37:54.611Z,990.6
2023-01-27T20:41:57.753Z,990.7
2023-01-27T20:43:59.657Z,990.7
2023-01-27T20:46:00.827Z,990.7
2023-01-27T20:48:02.202Z,990.7
2023-01-27T20:50:03.981Z,990.7
2023-01-27T20:52:05.627Z,990.7
2023-01-27T20:54:07.162Z,990.7
2023-01-27T20:56:08.470Z,990.8
2023-01-27T20:58:10.315Z,990.8
2023-01-27T21:00:12.265Z,990.8
2023-01-27T21:02:13.834Z,990.9
2023-01-27T21:04:15.365Z,990.8
2023-01-27T21:06:17.377Z,990.8
2023-01-27T21:08:19.383Z,990.8
2023-01-27T21:10:21.150Z,990.9
2023-01-27T21:14:24.699Z,990.9
2023-01-27T21:16:26.708Z,990.9
2023-01-27T21:18:28.039Z,990.9
2023-01-27T21:20:30.020Z,990.9
2023-01-27T21:22:31.767Z,991.1
2023-01-27T21:24:33.127Z,990.9
2023-01-27T21:26:34.627Z,990.9
2023-01-27T21:28:36.107Z,990.9
2023-01-27T21:30:37.731Z,990.9
2023-01-27T21:32:39.175Z,990.9
2023-01-27T21:34:40.733Z,990.8
2023-01-27T21:36:42.545Z,990.8
2023-01-27T21:38:43.729Z,990.8
2023-01-27T21:40:45.198Z,990.9
2023-01-27T21:42:46.830Z,990.9
2023-01-27T21:44:48.047Z,990.8
2023-01-27T21:46:49.696Z,990.8
2023-01-27T21:48:51.685Z,990.8
2023-01-27T21:50:53.413Z,990.8
2023-01-27T21:52:55.045Z,990.8
2023-01-27T21:56:57.633Z,990.8
2023-01-27T21:58:59.341Z,990.8
2023-01-27T22:01:01.324Z,990.9
2023-01-27T22:03:03.079Z,990.8
2023-01-27T22:07:06.102Z,991
2023-01-27T22:09:08.016Z,990.9
2023-01-27T22:11:11.635Z,990.9
2023-01-27T22:15:12.626Z,991
2023-01-27T22:17:14.086Z,991
2023-01-27T22:19:15.207Z,991
2023-01-27T22:21:16.224Z,991
2023-01-27T22:23:18.211Z,991
2023-01-27T22:25:19.337Z,991
2023-01-27T22:29:21.930Z,991
2023-01-27T22:31:23.127Z,991
2023-01-27T22:33:24.766Z,991
2023-01-27T22:35:25.971Z,991
2023-01-27T22:39:28.934Z,990.9
2023-01-27T22:41:30.286Z,991
2023-01-27T22:43:31.586Z,991
2023-01-27T22:45:33.140Z,991
2023-01-27T22:47:35.135Z,991
2023-01-27T22:49:36.154Z,991
2023-01-27T22:51:38.070Z,990.9
2023-01-27T22:53:39.200Z,990.8
2023-01-27T22:55:40.581Z,990.8
2023-01-27T22:57:41.904Z,990.7
2023-01-27T22:59:43.307Z,990.7
2023-01-27T23:01:44.454Z,990.6
2023-01-27T23:03:46.133Z,990.8
2023-01-27T23:05:47.862Z,990.7
2023-01-27T23:07:49.613Z,990.8
2023-01-27T23:09:51.489Z,990.7
2023-01-27T23:11:52.876Z,990.8
2023-01-27T23:13:54.612Z,990.7
2023-01-27T23:15:56.206Z,990.8
2023-01-27T23:17:57.943Z,990.8
2023-01-27T23:19:59.192Z,990.8
2023-01-27T23:22:01.227Z,990.7
2023-01-27T23:24:03.059Z,990.9
2023-01-27T23:26:04.231Z,990.8
2023-01-27T23:28:05.278Z,990.8
2023-01-27T23:30:06.651Z,990.7
2023-01-27T23:32:08.248Z,990.8
2023-01-27T23:34:09.683Z,990.8
2023-01-27T23:36:11.654Z,990.8
2023-01-27T23:38:26.556Z,990.8
2023-01-27T23:40:14.955Z,990.8
2023-01-27T23:42:16.272Z,990.7
2023-01-27T23:44:17.370Z,990.8
2023-01-27T23:46:19.141Z,990.8
2023-01-27T23:48:20.883Z,990.8
2023-01-27T23:50:22.783Z,990.8
2023-01-27T23:52:24.476Z,990.8
2023-01-27T23:54:25.833Z,990.7
2023-01-27T23:56:27.107Z,990.7
2023-01-27T23:58:28.414Z,990.7
